sensor_id;sensor_type;location;lat;lon;timestamp;pressure;altitude;pressure_sealevel;temperature;humidity
55757;BME280;41676;44.610;44.078;2023-09-08T00:00:59;100215.59;;;17.39;61.73
55757;BME280;41676;44.610;44.078;2023-09-08T00:06:00;100234.31;;;17.52;61.79
55757;BME280;41676;44.610;44.078;2023-09-08T00:11:00;100304.16;;;17.90;62.22
55757;BME280;41676;44.610;44.078;2023-09-08T00:16:01;100307.91;;;17.83;62.83
55757;BME280;41676;44.610;44.078;2023-09-08T00:21:02;100312.72;;;17.74;63.53
55757;BME280;41676;44.610;44.078;2023-09-08T00:26:03;100291.78;;;17.44;63.88
55757;BME280;41676;44.610;44.078;2023-09-08T00:31:03;100312.25;;;17.39;64.52
55757;BME280;41676;44.610;44.078;2023-09-08T00:36:05;100319.75;;;17.23;65.34
55757;BME280;41676;44.610;44.078;2023-09-08T00:41:06;100280.25;;;16.85;65.73
55757;BME280;41676;44.610;44.078;2023-09-08T00:46:07;100275.09;;;16.51;66.55
55757;BME280;41676;44.610;44.078;2023-09-08T00:51:09;100331.84;;;16.61;67.26
55757;BME280;41676;44.610;44.078;2023-09-08T00:56:10;100350.00;;;16.72;67.58
55757;BME280;41676;44.610;44.078;2023-09-08T01:01:12;100344.22;;;16.75;67.83
55757;BME280;41676;44.610;44.078;2023-09-08T01:06:13;100344.84;;;16.64;68.06
55757;BME280;41676;44.610;44.078;2023-09-08T01:11:14;100279.88;;;16.22;68.33
55757;BME280;41676;44.610;44.078;2023-09-08T01:16:15;100357.00;;;16.60;68.80
55757;BME280;41676;44.610;44.078;2023-09-08T01:21:52;100354.53;;;16.52;70.85
55757;BME280;41676;44.610;44.078;2023-09-08T01:26:54;100298.44;;;16.10;69.20
55757;BME280;41676;44.610;44.078;2023-09-08T01:31:56;100355.97;;;16.48;69.81
55757;BME280;41676;44.610;44.078;2023-09-08T01:36:57;100359.69;;;16.47;70.25
55757;BME280;41676;44.610;44.078;2023-09-08T01:42:00;100359.28;;;16.50;70.67
55757;BME280;41676;44.610;44.078;2023-09-08T01:47:01;100358.22;;;16.51;70.75
55757;BME280;41676;44.610;44.078;2023-09-08T01:52:01;100367.31;;;16.56;71.37
55757;BME280;41676;44.610;44.078;2023-09-08T01:57:02;100366.28;;;16.57;71.74
55757;BME280;41676;44.610;44.078;2023-09-08T02:02:03;100313.06;;;16.08;71.85
55757;BME280;41676;44.610;44.078;2023-09-08T02:07:04;100375.16;;;16.44;72.06
55757;BME280;41676;44.610;44.078;2023-09-08T02:12:05;100334.50;;;16.08;72.41
55757;BME280;41676;44.610;44.078;2023-09-08T02:17:06;100384.63;;;16.40;72.88
55757;BME280;41676;44.610;44.078;2023-09-08T02:22:07;100383.41;;;16.36;72.92
55757;BME280;41676;44.610;44.078;2023-09-08T02:27:08;100363.16;;;16.14;73.45
55757;BME280;41676;44.610;44.078;2023-09-08T02:32:08;100381.72;;;16.15;73.90
55757;BME280;41676;44.610;44.078;2023-09-08T02:37:09;100347.22;;;15.79;74.26
55757;BME280;41676;44.610;44.078;2023-09-08T02:42:10;100403.34;;;16.01;74.63
55757;BME280;41676;44.610;44.078;2023-09-08T02:47:11;100348.88;;;15.73;74.33
55757;BME280;41676;44.610;44.078;2023-09-08T02:52:11;100409.53;;;16.14;74.04
55757;BME280;41676;44.610;44.078;2023-09-08T02:57:12;100408.09;;;16.12;73.42
55757;BME280;41676;44.610;44.078;2023-09-08T03:02:13;100421.13;;;16.28;73.29
55757;BME280;41676;44.610;44.078;2023-09-08T03:07:13;100359.66;;;16.07;72.23
55757;BME280;41676;44.610;44.078;2023-09-08T03:12:14;100427.34;;;16.55;71.12
55757;BME280;41676;44.610;44.078;2023-09-08T03:17:15;100384.41;;;16.42;69.43
55757;BME280;41676;44.610;44.078;2023-09-08T03:22:16;100382.56;;;16.62;68.88
55757;BME280;41676;44.610;44.078;2023-09-08T03:27:16;100438.69;;;17.30;68.65
55757;BME280;41676;44.610;44.078;2023-09-08T03:32:17;100436.50;;;17.79;66.33
55757;BME280;41676;44.610;44.078;2023-09-08T03:37:18;100455.00;;;18.39;64.30
55757;BME280;41676;44.610;44.078;2023-09-08T03:42:19;100442.19;;;18.66;61.76
55757;BME280;41676;44.610;44.078;2023-09-08T03:47:19;100471.69;;;18.86;60.32
55757;BME280;41676;44.610;44.078;2023-09-08T03:52:20;100398.88;;;18.17;58.72
55757;BME280;41676;44.610;44.078;2023-09-08T03:57:22;100484.16;;;18.80;57.34
55757;BME280;41676;44.610;44.078;2023-09-08T04:02:23;100432.53;;;19.08;55.00
55757;BME280;41676;44.610;44.078;2023-09-08T04:07:24;100476.59;;;19.39;53.36
55757;BME280;41676;44.610;44.078;2023-09-08T04:12:24;100491.66;;;19.65;51.81
55757;BME280;41676;44.610;44.078;2023-09-08T04:17:25;100504.19;;;19.78;50.05
55757;BME280;41676;44.610;44.078;2023-09-08T04:22:26;100434.06;;;19.23;49.18
55757;BME280;41676;44.610;44.078;2023-09-08T04:27:27;100505.44;;;19.94;48.65
55757;BME280;41676;44.610;44.078;2023-09-08T04:32:27;100477.44;;;20.43;47.09
55757;BME280;41676;44.610;44.078;2023-09-08T04:37:28;100507.16;;;21.09;45.75
55757;BME280;41676;44.610;44.078;2023-09-08T04:42:31;100467.22;;;21.11;43.89
55757;BME280;41676;44.610;44.078;2023-09-08T04:47:31;100471.63;;;20.70;44.05
55757;BME280;41676;44.610;44.078;2023-09-08T04:52:32;100513.06;;;20.64;44.51
55757;BME280;41676;44.610;44.078;2023-09-08T04:57:33;100516.44;;;20.29;44.28
55757;BME280;41676;44.610;44.078;2023-09-08T05:02:33;100518.22;;;20.35;43.42
55757;BME280;41676;44.610;44.078;2023-09-08T05:07:34;100484.94;;;19.93;42.82
55757;BME280;41676;44.610;44.078;2023-09-08T05:12:35;100540.16;;;20.57;42.35
55757;BME280;41676;44.610;44.078;2023-09-08T05:17:36;100530.31;;;21.16;42.15
55757;BME280;41676;44.610;44.078;2023-09-08T05:22:37;100535.31;;;21.43;41.14
55757;BME280;41676;44.610;44.078;2023-09-08T05:27:37;100497.22;;;21.45;40.70
55757;BME280;41676;44.610;44.078;2023-09-08T05:32:38;100523.53;;;21.37;40.24
55757;BME280;41676;44.610;44.078;2023-09-08T05:37:39;100487.97;;;20.75;40.98
55757;BME280;41676;44.610;44.078;2023-09-08T05:42:39;100514.91;;;21.05;40.34
55757;BME280;41676;44.610;44.078;2023-09-08T05:47:40;100517.16;;;21.32;40.48
55757;BME280;41676;44.610;44.078;2023-09-08T05:52:41;100496.75;;;21.48;39.75
55757;BME280;41676;44.610;44.078;2023-09-08T05:57:42;100540.19;;;21.93;39.29
55757;BME280;41676;44.610;44.078;2023-09-08T06:02:42;100541.25;;;21.80;39.00
55757;BME280;41676;44.610;44.078;2023-09-08T06:07:43;100544.41;;;21.89;38.53
55757;BME280;41676;44.610;44.078;2023-09-08T06:12:44;100520.66;;;21.91;38.52
55757;BME280;41676;44.610;44.078;2023-09-08T06:17:45;100504.75;;;22.18;38.08
55757;BME280;41676;44.610;44.078;2023-09-08T06:22:47;100473.19;;;22.24;37.72
55757;BME280;41676;44.610;44.078;2023-09-08T06:27:48;100496.22;;;22.55;37.71
55757;BME280;41676;44.610;44.078;2023-09-08T06:32:48;100545.94;;;22.94;37.25
55757;BME280;41676;44.610;44.078;2023-09-08T06:37:49;100541.56;;;23.22;37.28
55757;BME280;41676;44.610;44.078;2023-09-08T06:42:50;100497.50;;;22.81;35.99
55757;BME280;41676;44.610;44.078;2023-09-08T06:47:51;100528.19;;;22.87;36.14
55757;BME280;41676;44.610;44.078;2023-09-08T06:52:55;100477.97;;;22.62;35.96
55757;BME280;41676;44.610;44.078;2023-09-08T06:57:56;100448.66;;;22.59;35.90
55757;BME280;41676;44.610;44.078;2023-09-08T07:02:57;100537.47;;;23.58;36.30
55757;BME280;41676;44.610;44.078;2023-09-08T07:07:58;100532.81;;;23.71;35.03
55757;BME280;41676;44.610;44.078;2023-09-08T07:12:58;100465.78;;;23.49;35.32
55757;BME280;41676;44.610;44.078;2023-09-08T07:17:59;100501.44;;;23.41;34.99
55757;BME280;41676;44.610;44.078;2023-09-08T07:23:00;100517.16;;;23.78;34.42
55757;BME280;41676;44.610;44.078;2023-09-08T07:28:01;100491.59;;;23.96;34.65
55757;BME280;41676;44.610;44.078;2023-09-08T07:33:01;100500.16;;;23.65;33.93
55757;BME280;41676;44.610;44.078;2023-09-08T07:38:05;100500.31;;;23.20;34.94
55757;BME280;41676;44.610;44.078;2023-09-08T07:43:06;100510.59;;;23.57;34.06
55757;BME280;41676;44.610;44.078;2023-09-08T07:48:06;100511.28;;;23.47;34.08
55757;BME280;41676;44.610;44.078;2023-09-08T07:53:07;100503.28;;;23.01;34.42
55757;BME280;41676;44.610;44.078;2023-09-08T07:58:08;100494.88;;;23.37;34.74
55757;BME280;41676;44.610;44.078;2023-09-08T08:03:09;100458.47;;;23.33;34.08
55757;BME280;41676;44.610;44.078;2023-09-08T08:08:10;100492.00;;;23.65;34.11
55757;BME280;41676;44.610;44.078;2023-09-08T08:13:10;100491.19;;;24.31;33.04
55757;BME280;41676;44.610;44.078;2023-09-08T08:18:11;100480.59;;;24.83;33.23
55757;BME280;41676;44.610;44.078;2023-09-08T08:23:12;100459.63;;;24.79;32.83
55757;BME280;41676;44.610;44.078;2023-09-08T08:28:13;100485.16;;;24.78;32.59
55757;BME280;41676;44.610;44.078;2023-09-08T08:33:14;100444.28;;;24.63;32.42
55757;BME280;41676;44.610;44.078;2023-09-08T08:38:14;100498.53;;;24.85;31.96
55757;BME280;41676;44.610;44.078;2023-09-08T08:43:15;100498.66;;;25.00;32.72
55757;BME280;41676;44.610;44.078;2023-09-08T08:48:18;100486.19;;;25.04;31.46
55757;BME280;41676;44.610;44.078;2023-09-08T08:53:21;100473.31;;;24.89;31.84
55757;BME280;41676;44.610;44.078;2023-09-08T08:58:22;100473.81;;;24.05;32.73
55757;BME280;41676;44.610;44.078;2023-09-08T09:03:27;100490.00;;;24.22;32.42
55757;BME280;41676;44.610;44.078;2023-09-08T09:08:29;100484.59;;;24.76;32.13
55757;BME280;41676;44.610;44.078;2023-09-08T09:13:30;100454.38;;;25.04;31.99
55757;BME280;41676;44.610;44.078;2023-09-08T09:18:30;100481.75;;;25.25;31.99
55757;BME280;41676;44.610;44.078;2023-09-08T09:23:33;100452.59;;;24.83;31.63
55757;BME280;41676;44.610;44.078;2023-09-08T09:28:49;100481.19;;;25.23;31.28
55757;BME280;41676;44.610;44.078;2023-09-08T09:34:05;100451.94;;;25.45;32.36
55757;BME280;41676;44.610;44.078;2023-09-08T09:39:05;100426.16;;;25.58;31.31
55757;BME280;41676;44.610;44.078;2023-09-08T09:44:06;100471.72;;;25.83;30.83
55757;BME280;41676;44.610;44.078;2023-09-08T09:49:10;100466.63;;;26.07;30.45
55757;BME280;41676;44.610;44.078;2023-09-08T09:54:12;100399.00;;;25.68;30.33
55757;BME280;41676;44.610;44.078;2023-09-08T09:59:13;100442.97;;;26.03;30.45
55757;BME280;41676;44.610;44.078;2023-09-08T10:04:15;100452.75;;;26.14;31.05
55757;BME280;41676;44.610;44.078;2023-09-08T10:09:16;100444.59;;;26.04;30.49
55757;BME280;41676;44.610;44.078;2023-09-08T10:14:19;100438.63;;;26.22;30.16
55757;BME280;41676;44.610;44.078;2023-09-08T10:19:21;100408.28;;;25.78;30.62
55757;BME280;41676;44.610;44.078;2023-09-08T10:24:35;100429.63;;;26.16;30.60
55757;BME280;41676;44.610;44.078;2023-09-08T10:29:38;100405.91;;;25.96;30.65
55757;BME280;41676;44.610;44.078;2023-09-08T10:34:39;100379.06;;;25.47;30.58
55757;BME280;41676;44.610;44.078;2023-09-08T10:39:41;100401.47;;;25.70;30.76
55757;BME280;41676;44.610;44.078;2023-09-08T10:44:43;100356.00;;;25.65;30.86
55757;BME280;41676;44.610;44.078;2023-09-08T10:49:45;100391.38;;;25.70;30.37
55757;BME280;41676;44.610;44.078;2023-09-08T10:54:50;100332.75;;;25.27;30.21
55757;BME280;41676;44.610;44.078;2023-09-08T11:00:00;100316.44;;;25.27;30.77
55757;BME280;41676;44.610;44.078;2023-09-08T11:05:08;100358.69;;;25.50;30.14
55757;BME280;41676;44.610;44.078;2023-09-08T11:10:10;100381.84;;;25.68;30.70
55757;BME280;41676;44.610;44.078;2023-09-08T11:15:11;100357.13;;;25.80;30.78
55757;BME280;41676;44.610;44.078;2023-09-08T11:20:12;100341.13;;;25.99;30.41
55757;BME280;41676;44.610;44.078;2023-09-08T11:25:12;100358.03;;;26.21;30.63
55757;BME280;41676;44.610;44.078;2023-09-08T11:30:13;100352.03;;;26.04;30.33
55757;BME280;41676;44.610;44.078;2023-09-08T11:35:14;100334.50;;;25.69;30.38
55757;BME280;41676;44.610;44.078;2023-09-08T11:40:16;100286.63;;;25.63;31.36
55757;BME280;41676;44.610;44.078;2023-09-08T11:45:17;100337.06;;;26.11;30.82
55757;BME280;41676;44.610;44.078;2023-09-08T11:50:22;100315.53;;;25.89;30.41
55757;BME280;41676;44.610;44.078;2023-09-08T11:55:24;100334.63;;;26.10;30.68
55757;BME280;41676;44.610;44.078;2023-09-08T12:00:27;100320.44;;;25.98;30.80
55757;BME280;41676;44.610;44.078;2023-09-08T12:05:28;100262.94;;;25.48;30.15
55757;BME280;41676;44.610;44.078;2023-09-08T12:10:29;100279.50;;;25.41;30.36
55757;BME280;41676;44.610;44.078;2023-09-08T12:20:36;100315.72;;;25.57;30.43
55757;BME280;41676;44.610;44.078;2023-09-08T12:25:53;100314.69;;;25.73;30.42
55757;BME280;41676;44.610;44.078;2023-09-08T12:30:53;100308.41;;;25.58;30.64
55757;BME280;41676;44.610;44.078;2023-09-08T12:35:54;100308.91;;;25.49;30.15
55757;BME280;41676;44.610;44.078;2023-09-08T12:40:55;100306.38;;;25.27;30.08
55757;BME280;41676;44.610;44.078;2023-09-08T12:45:56;100243.94;;;24.85;31.46
55757;BME280;41676;44.610;44.078;2023-09-08T12:50:56;100213.44;;;24.63;30.14
55757;BME280;41676;44.610;44.078;2023-09-08T12:55:57;100294.16;;;25.25;30.35
55757;BME280;41676;44.610;44.078;2023-09-08T13:00:58;100296.63;;;25.32;30.28
55757;BME280;41676;44.610;44.078;2023-09-08T13:05:58;100291.72;;;25.34;30.29
55757;BME280;41676;44.610;44.078;2023-09-08T13:10:59;100264.38;;;24.98;30.40
55757;BME280;41676;44.610;44.078;2023-09-08T13:16:00;100285.06;;;25.09;30.80
55757;BME280;41676;44.610;44.078;2023-09-08T13:21:01;100279.09;;;25.07;30.30
55757;BME280;41676;44.610;44.078;2023-09-08T13:26:02;100238.72;;;24.73;30.52
55757;BME280;41676;44.610;44.078;2023-09-08T13:31:02;100257.28;;;24.87;29.99
55757;BME280;41676;44.610;44.078;2023-09-08T13:36:03;100269.97;;;24.76;30.72
55757;BME280;41676;44.610;44.078;2023-09-08T13:41:04;100265.09;;;24.78;31.04
55757;BME280;41676;44.610;44.078;2023-09-08T13:46:05;100261.25;;;24.69;30.64
55757;BME280;41676;44.610;44.078;2023-09-08T13:51:05;100221.09;;;24.33;30.53
55757;BME280;41676;44.610;44.078;2023-09-08T13:56:06;100240.38;;;24.37;30.61
55757;BME280;41676;44.610;44.078;2023-09-08T14:01:07;100261.06;;;24.38;30.08
55757;BME280;41676;44.610;44.078;2023-09-08T14:06:07;100256.09;;;24.30;30.38
55757;BME280;41676;44.610;44.078;2023-09-08T14:11:08;100259.28;;;24.22;30.06
55757;BME280;41676;44.610;44.078;2023-09-08T14:16:10;100252.88;;;24.01;29.77
55757;BME280;41676;44.610;44.078;2023-09-08T14:21:11;100158.44;;;23.33;30.47
55757;BME280;41676;44.610;44.078;2023-09-08T14:26:13;100259.97;;;23.69;30.35
55757;BME280;41676;44.610;44.078;2023-09-08T14:31:13;100133.75;;;22.81;30.42
55757;BME280;41676;44.610;44.078;2023-09-08T14:36:18;100219.06;;;23.22;30.12
55757;BME280;41676;44.610;44.078;2023-09-08T14:41:19;100235.47;;;23.15;30.44
55757;BME280;41676;44.610;44.078;2023-09-08T14:46:19;100247.59;;;23.08;30.88
55757;BME280;41676;44.610;44.078;2023-09-08T14:51:20;100209.13;;;22.67;31.18
55757;BME280;41676;44.610;44.078;2023-09-08T14:56:21;100252.84;;;22.75;30.83
55757;BME280;41676;44.610;44.078;2023-09-08T15:01:22;100236.28;;;22.50;30.98
55757;BME280;41676;44.610;44.078;2023-09-08T17:28:50;100278.94;;;18.16;33.14
55757;BME280;41676;44.610;44.078;2023-09-08T17:33:51;100251.16;;;17.97;33.19
55757;BME280;41676;44.610;44.078;2023-09-08T17:38:52;100228.81;;;17.72;33.54
55757;BME280;41676;44.610;44.078;2023-09-08T17:43:52;100246.19;;;17.69;34.20
55757;BME280;41676;44.610;44.078;2023-09-08T17:48:53;100275.41;;;17.91;34.34
55757;BME280;41676;44.610;44.078;2023-09-08T17:53:54;100293.84;;;17.87;34.04
55757;BME280;41676;44.610;44.078;2023-09-08T17:58:55;100207.97;;;17.36;34.44
55757;BME280;41676;44.610;44.078;2023-09-08T18:03:55;100281.47;;;17.79;34.32
55757;BME280;41676;44.610;44.078;2023-09-08T18:08:56;100277.38;;;17.70;35.86
55757;BME280;41676;44.610;44.078;2023-09-08T18:13:57;100280.56;;;17.54;36.66
55757;BME280;41676;44.610;44.078;2023-09-08T18:18:59;100262.56;;;17.16;37.39
55757;BME280;41676;44.610;44.078;2023-09-08T18:24:00;100242.81;;;17.04;37.18
55757;BME280;41676;44.610;44.078;2023-09-08T18:29:00;100272.09;;;17.12;37.48
55757;BME280;41676;44.610;44.078;2023-09-08T18:34:01;100235.66;;;16.78;37.96
55757;BME280;41676;44.610;44.078;2023-09-08T18:39:02;100279.56;;;17.03;38.60
55757;BME280;41676;44.610;44.078;2023-09-08T18:44:05;100286.22;;;16.87;38.18
55757;BME280;41676;44.610;44.078;2023-09-08T18:49:05;100282.31;;;16.57;39.02
55757;BME280;41676;44.610;44.078;2023-09-08T18:54:06;100287.09;;;16.35;41.10
55757;BME280;41676;44.610;44.078;2023-09-08T18:59:07;100283.81;;;16.13;41.53
55757;BME280;41676;44.610;44.078;2023-09-08T19:04:08;100276.78;;;15.92;42.38
55757;BME280;41676;44.610;44.078;2023-09-08T19:09:09;100268.13;;;15.77;43.67
55757;BME280;41676;44.610;44.078;2023-09-08T19:14:10;100277.13;;;15.62;43.80
55757;BME280;41676;44.610;44.078;2023-09-08T19:19:11;100269.41;;;15.33;44.82
55757;BME280;41676;44.610;44.078;2023-09-08T19:24:11;100238.19;;;14.98;44.79
55757;BME280;41676;44.610;44.078;2023-09-08T19:29:14;100244.31;;;14.92;45.05
55757;BME280;41676;44.610;44.078;2023-09-08T19:34:15;100273.13;;;14.90;45.21
55757;BME280;41676;44.610;44.078;2023-09-08T19:39:15;100268.09;;;14.74;45.50
55757;BME280;41676;44.610;44.078;2023-09-08T19:44:16;100271.44;;;14.82;46.22
55757;BME280;41676;44.610;44.078;2023-09-08T19:49:17;100218.16;;;14.46;46.46
55757;BME280;41676;44.610;44.078;2023-09-08T19:54:18;100195.56;;;14.21;47.66
55757;BME280;41676;44.610;44.078;2023-09-08T19:59:19;100259.19;;;14.38;49.04
55757;BME280;41676;44.610;44.078;2023-09-08T20:04:21;100262.19;;;14.22;49.59
55757;BME280;41676;44.610;44.078;2023-09-08T20:09:22;100255.50;;;14.11;49.89
55757;BME280;41676;44.610;44.078;2023-09-08T20:14:23;100262.53;;;14.12;49.99
55757;BME280;41676;44.610;44.078;2023-09-08T20:19:24;100255.44;;;14.05;49.46
55757;BME280;41676;44.610;44.078;2023-09-08T20:24:25;100253.22;;;14.08;49.24
55757;BME280;41676;44.610;44.078;2023-09-08T20:29:26;100256.63;;;13.96;49.98
55757;BME280;41676;44.610;44.078;2023-09-08T20:34:28;100241.66;;;14.01;51.47
55757;BME280;41676;44.610;44.078;2023-09-08T20:39:29;100244.91;;;13.97;52.53
55757;BME280;41676;44.610;44.078;2023-09-08T20:44:30;100237.97;;;14.02;53.25
55757;BME280;41676;44.610;44.078;2023-09-08T20:49:30;100193.66;;;13.58;54.22
55757;BME280;41676;44.610;44.078;2023-09-08T20:54:31;100189.69;;;13.54;54.33
55757;BME280;41676;44.610;44.078;2023-09-08T20:59:33;100247.25;;;13.85;54.58
55757;BME280;41676;44.610;44.078;2023-09-08T21:04:34;100218.44;;;13.74;54.17
55757;BME280;41676;44.610;44.078;2023-09-08T21:09:35;100225.47;;;13.81;54.66
55757;BME280;41676;44.610;44.078;2023-09-08T21:14:36;100219.69;;;13.78;55.21
55757;BME280;41676;44.610;44.078;2023-09-08T21:19:37;100212.44;;;13.72;54.61
55757;BME280;41676;44.610;44.078;2023-09-08T21:24:37;100209.34;;;13.68;55.42
55757;BME280;41676;44.610;44.078;2023-09-08T21:29:38;100192.56;;;13.53;55.30
55757;BME280;41676;44.610;44.078;2023-09-08T21:34:39;100210.94;;;13.62;55.20
55757;BME280;41676;44.610;44.078;2023-09-08T21:39:39;100174.56;;;13.40;55.27
55757;BME280;41676;44.610;44.078;2023-09-08T21:44:40;100211.69;;;13.56;55.35
55757;BME280;41676;44.610;44.078;2023-09-08T21:49:41;100208.31;;;13.47;55.13
55757;BME280;41676;44.610;44.078;2023-09-08T21:54:41;100202.28;;;13.39;55.76
55757;BME280;41676;44.610;44.078;2023-09-08T21:59:42;100196.31;;;13.22;55.47
55757;BME280;41676;44.610;44.078;2023-09-08T22:04:43;100163.63;;;13.13;55.29
55757;BME280;41676;44.610;44.078;2023-09-08T22:09:44;100216.38;;;13.54;55.14
55757;BME280;41676;44.610;44.078;2023-09-08T22:14:48;100221.16;;;13.59;54.45
55757;BME280;41676;44.610;44.078;2023-09-08T22:19:49;100227.44;;;13.73;53.38
55757;BME280;41676;44.610;44.078;2023-09-08T22:24:53;100232.84;;;14.01;52.00
55757;BME280;41676;44.610;44.078;2023-09-08T22:29:54;100227.84;;;13.91;51.74
55757;BME280;41676;44.610;44.078;2023-09-08T22:34:54;100213.31;;;14.00;51.35
55757;BME280;41676;44.610;44.078;2023-09-08T22:39:55;100214.25;;;14.21;50.75
55757;BME280;41676;44.610;44.078;2023-09-08T22:44:56;100194.94;;;14.19;50.29
55757;BME280;41676;44.610;44.078;2023-09-08T22:50:02;100213.97;;;14.37;49.80
55757;BME280;41676;44.610;44.078;2023-09-08T22:55:10;100212.28;;;14.29;49.56
55757;BME280;41676;44.610;44.078;2023-09-08T23:00:12;100153.38;;;14.09;49.75
55757;BME280;41676;44.610;44.078;2023-09-08T23:05:13;100146.97;;;14.04;49.45
55757;BME280;41676;44.610;44.078;2023-09-08T23:10:13;100187.84;;;14.32;49.96
55757;BME280;41676;44.610;44.078;2023-09-08T23:15:14;100193.34;;;14.24;50.51
55757;BME280;41676;44.610;44.078;2023-09-08T23:20:15;100198.19;;;14.14;51.40
55757;BME280;41676;44.610;44.078;2023-09-08T23:25:16;100167.41;;;13.90;51.28
55757;BME280;41676;44.610;44.078;2023-09-08T23:30:17;100139.72;;;13.69;50.93
55757;BME280;41676;44.610;44.078;2023-09-08T23:35:17;100185.66;;;13.86;50.96
55757;BME280;41676;44.610;44.078;2023-09-08T23:40:18;100191.34;;;13.77;51.70
55757;BME280;41676;44.610;44.078;2023-09-08T23:45:20;100189.53;;;13.56;52.40
55757;BME280;41676;44.610;44.078;2023-09-08T23:50:47;100203.63;;;13.71;54.05
55757;BME280;41676;44.610;44.078;2023-09-08T23:55:49;100198.28;;;13.71;51.67
